createdAt,value
2023-04-04T00:00:32.284Z,9.22
2023-04-04T00:02:59.770Z,9.08
2023-04-04T00:05:27.811Z,9.24
2023-04-04T00:07:55.167Z,9.20
2023-04-04T00:10:22.589Z,9.21
2023-04-04T00:12:50.034Z,9.13
2023-04-04T00:15:17.440Z,9.06
2023-04-04T00:17:44.867Z,9.03
2023-04-04T00:20:12.380Z,9.04
2023-04-04T00:22:39.810Z,8.97
2023-04-04T00:25:07.495Z,9.08
2023-04-04T00:27:34.854Z,9.06
2023-04-04T00:30:02.262Z,8.91
2023-04-04T00:32:29.685Z,8.86
2023-04-04T00:34:58.982Z,9.02
2023-04-04T00:37:27.972Z,8.94
2023-04-04T00:39:55.776Z,8.96
2023-04-04T00:42:23.548Z,8.90
2023-04-04T00:44:52.680Z,8.70
2023-04-04T00:47:24.534Z,8.80
2023-04-04T00:49:52.553Z,8.63
2023-04-04T00:52:19.984Z,8.66
2023-04-04T00:54:47.531Z,8.80
2023-04-04T00:57:15.313Z,8.72
2023-04-04T00:59:43.240Z,8.74
2023-04-04T01:02:10.911Z,8.68
2023-04-04T01:04:38.804Z,8.72
2023-04-04T01:07:06.281Z,8.50
2023-04-04T01:09:33.851Z,8.52
2023-04-04T01:12:02.669Z,8.40
2023-04-04T01:14:32.748Z,8.49
2023-04-04T01:17:03.206Z,8.49
2023-04-04T01:19:36.956Z,8.39
2023-04-04T01:22:12.565Z,8.27
2023-04-04T01:24:43.391Z,8.52
2023-04-04T01:27:11.254Z,8.49
2023-04-04T01:29:44.382Z,8.39
2023-04-04T01:32:20.686Z,8.48
2023-04-04T01:35:13.648Z,8.35
2023-04-04T01:37:55.924Z,8.43
2023-04-04T01:40:28.498Z,8.38
2023-04-04T01:42:57.924Z,8.27
2023-04-04T01:45:27.440Z,8.20
2023-04-04T01:47:54.883Z,8.23
2023-04-04T01:50:24.301Z,8.35
2023-04-04T01:52:52.005Z,8.26
2023-04-04T01:55:19.471Z,8.11
2023-04-04T01:57:47.244Z,7.91
2023-04-04T02:00:15.895Z,8.07
2023-04-04T02:02:43.989Z,7.88
2023-04-04T02:05:12.574Z,7.77
2023-04-04T02:07:40.636Z,7.63
2023-04-04T02:10:18.570Z,7.66
2023-04-04T02:12:46.834Z,7.71
2023-04-04T02:15:14.208Z,7.72
2023-04-04T02:17:41.833Z,7.78
2023-04-04T02:20:10.718Z,7.65
2023-04-04T02:22:38.279Z,7.45
2023-04-04T02:25:06.925Z,7.45
2023-04-04T02:27:34.301Z,7.40
2023-04-04T02:30:01.935Z,7.42
2023-04-04T02:32:30.355Z,7.42
2023-04-04T02:34:57.813Z,7.46
2023-04-04T02:37:25.450Z,7.20
2023-04-04T02:39:54.418Z,7.22
2023-04-04T02:42:22.443Z,7.36
2023-04-04T02:44:51.349Z,7.24
2023-04-04T02:47:19.258Z,7.09
2023-04-04T02:49:47.194Z,7.20
2023-04-04T02:52:15.157Z,7.18
2023-04-04T02:54:46.332Z,7.27
2023-04-04T02:57:23.680Z,7.40
2023-04-04T02:59:50.998Z,7.32
2023-04-04T03:02:18.423Z,7.29
2023-04-04T03:04:45.856Z,7.36
2023-04-04T03:07:14.161Z,7.28
2023-04-04T03:09:45.164Z,7.35
2023-04-04T03:12:12.723Z,7.21
2023-04-04T03:14:40.800Z,7.16
2023-04-04T03:17:09.601Z,7.19
2023-04-04T03:19:37.106Z,7.18
2023-04-04T03:22:04.590Z,7.34
2023-04-04T03:24:34.497Z,7.25
2023-04-04T03:27:02.032Z,7.40
2023-04-04T03:29:29.457Z,7.27
2023-04-04T03:31:58.319Z,7.32
2023-04-04T03:34:27.252Z,7.14
2023-04-04T03:36:54.767Z,7.17
2023-04-04T03:39:22.153Z,7.21
2023-04-04T03:41:49.578Z,7.24
2023-04-04T03:44:17.712Z,7.15
2023-04-04T03:46:45.592Z,7.15
2023-04-04T03:49:14.295Z,6.84
2023-04-04T03:51:41.872Z,6.74
2023-04-04T03:54:09.596Z,6.71
2023-04-04T03:56:37.076Z,6.70
2023-04-04T03:59:06.877Z,6.65
2023-04-04T04:01:34.294Z,6.71
2023-04-04T04:04:03.209Z,6.46
2023-04-04T04:06:30.624Z,6.58
2023-04-04T04:08:58.463Z,6.68
2023-04-04T04:11:25.918Z,6.59
2023-04-04T04:13:53.670Z,6.66
2023-04-04T04:16:22.038Z,6.67
2023-04-04T04:18:51.150Z,6.70
2023-04-04T04:21:26.403Z,6.65
2023-04-04T04:23:54.133Z,6.78
2023-04-04T04:26:21.549Z,6.78
2023-04-04T04:28:49.074Z,6.72
2023-04-04T04:31:21.093Z,6.67
2023-04-04T04:33:51.685Z,6.56
2023-04-04T04:36:22.023Z,6.59
2023-04-04T04:39:00.521Z,6.52
2023-04-04T04:41:31.698Z,6.44
2023-04-04T04:44:00.413Z,6.56
2023-04-04T04:46:28.161Z,6.59
2023-04-04T04:48:56.194Z,6.54
2023-04-04T04:51:28.403Z,6.54
2023-04-04T04:53:57.557Z,6.48
2023-04-04T04:56:26.528Z,6.54
2023-04-04T04:58:57.895Z,6.52
2023-04-04T05:01:27.756Z,6.56
2023-04-04T05:03:57.352Z,6.61
2023-04-04T05:06:32.746Z,6.41
2023-04-04T05:09:00.687Z,6.44
2023-04-04T05:11:35.433Z,6.47
2023-04-04T05:14:06.805Z,6.36
2023-04-04T05:16:39.048Z,6.49
2023-04-04T05:19:07.262Z,6.41
2023-04-04T05:21:41.237Z,6.48
2023-04-04T05:24:12.869Z,6.47
2023-04-04T05:26:40.669Z,6.38
2023-04-04T05:29:08.224Z,6.51
2023-04-04T05:31:39.474Z,6.43
2023-04-04T05:34:14.868Z,6.49
2023-04-04T05:36:42.670Z,6.54
2023-04-04T05:39:10.803Z,6.47
2023-04-04T05:41:45.504Z,6.54
2023-04-04T05:44:17.087Z,6.61
2023-04-04T05:46:44.555Z,6.59
2023-04-04T05:49:12.314Z,6.62
2023-04-04T05:51:45.447Z,6.68
2023-04-04T05:54:18.912Z,6.59
2023-04-04T05:56:47.546Z,6.63
2023-04-04T05:59:24.752Z,6.73
2023-04-04T06:01:57.979Z,6.79
2023-04-04T06:04:25.497Z,6.59
2023-04-04T06:06:55.860Z,6.61
2023-04-04T06:09:23.315Z,6.64
2023-04-04T06:11:50.738Z,6.65
2023-04-04T06:14:18.454Z,6.76
2023-04-04T06:16:47.390Z,6.86
2023-04-04T06:19:16.575Z,7.06
2023-04-04T06:21:43.985Z,7.08
2023-04-04T06:24:14.019Z,7.11
2023-04-04T06:26:42.774Z,7.04
2023-04-04T06:29:10.208Z,6.95
2023-04-04T06:31:39.252Z,7.22
2023-04-04T06:34:11.125Z,7.32
2023-04-04T06:36:52.653Z,7.64
2023-04-04T06:39:20.995Z,7.85
2023-04-04T06:41:50.209Z,7.96
2023-04-04T06:44:23.072Z,7.97
2023-04-04T06:46:51.445Z,7.82
2023-04-04T06:49:18.882Z,7.96
2023-04-04T06:51:46.905Z,8.28
2023-04-04T06:54:14.905Z,8.62
2023-04-04T06:56:42.287Z,8.38
2023-04-04T06:59:12.206Z,8.60
2023-04-04T07:01:39.740Z,8.76
2023-04-04T07:04:07.166Z,8.58
2023-04-04T07:06:34.583Z,8.58
2023-04-04T07:09:03.459Z,8.93
2023-04-04T07:11:31.271Z,8.90
2023-04-04T07:13:58.653Z,8.66
2023-04-04T07:16:26.707Z,9.09
2023-04-04T07:18:54.105Z,9.00
2023-04-04T07:21:21.474Z,8.89
2023-04-04T07:23:50.776Z,9.11
2023-04-04T07:26:18.246Z,9.16
2023-04-04T07:28:45.640Z,9.46
2023-04-04T07:31:14.813Z,9.55
2023-04-04T07:33:42.230Z,9.17
2023-04-04T07:36:10.077Z,9.12
2023-04-04T07:38:37.539Z,9.29
2023-04-04T07:41:04.979Z,9.80
2023-04-04T07:43:32.401Z,9.63
2023-04-04T07:45:59.859Z,9.89
2023-04-04T07:48:27.997Z,10.09
2023-04-04T07:50:55.402Z,10.27
2023-04-04T07:53:22.976Z,11.47
2023-04-04T07:55:50.478Z,11.09
2023-04-04T07:58:18.004Z,11.18
2023-04-04T08:00:45.616Z,11.32
2023-04-04T08:03:13.320Z,11.35
2023-04-04T08:05:43.830Z,11.98
2023-04-04T08:08:11.298Z,12.31
2023-04-04T08:10:39.420Z,12.22
2023-04-04T08:13:07.056Z,13.34
2023-04-04T08:15:34.466Z,12.99
2023-04-04T08:18:01.948Z,12.17
2023-04-04T08:20:29.687Z,11.72
2023-04-04T08:22:58.546Z,11.41
2023-04-04T08:25:25.993Z,11.21
2023-04-04T08:27:53.377Z,11.34
2023-04-04T08:30:20.864Z,11.39
2023-04-04T08:32:48.813Z,11.26
2023-04-04T08:35:16.511Z,11.00
2023-04-04T08:37:46.993Z,11.24
2023-04-04T08:40:14.771Z,10.81
2023-04-04T08:42:46.245Z,11.41
2023-04-04T08:45:17.935Z,11.03
2023-04-04T08:47:46.581Z,10.90
2023-04-04T08:50:14.085Z,11.13
2023-04-04T08:52:43.339Z,10.77
2023-04-04T08:55:11.413Z,11.70
2023-04-04T08:57:38.888Z,11.95
2023-04-04T09:00:07.531Z,11.92
2023-04-04T09:02:52.512Z,12.26
2023-04-04T09:05:21.178Z,12.02
2023-04-04T09:07:50.712Z,12.49
2023-04-04T09:10:18.136Z,13.06
2023-04-04T09:12:50.460Z,13.31
2023-04-04T09:15:19.552Z,13.61
2023-04-04T09:17:47.614Z,13.69
2023-04-04T09:20:33.743Z,13.71
2023-04-04T09:23:01.389Z,13.28
2023-04-04T09:25:28.844Z,12.95
2023-04-04T09:27:58.075Z,12.03
2023-04-04T09:30:25.600Z,11.73
2023-04-04T09:32:53.280Z,11.43
2023-04-04T09:35:27.893Z,11.15
2023-04-04T09:37:56.039Z,11.43
2023-04-04T09:40:24.163Z,11.63
2023-04-04T09:42:54.803Z,11.18
2023-04-04T09:45:32.499Z,11.08
2023-04-04T09:48:00.465Z,11.25
2023-04-04T09:50:33.636Z,11.30
2023-04-04T09:53:01.036Z,11.24
2023-04-04T09:55:33.321Z,10.51
2023-04-04T09:58:11.975Z,10.98
2023-04-04T10:00:47.884Z,11.08
2023-04-04T10:03:16.450Z,11.23
2023-04-04T10:05:47.804Z,11.45
2023-04-04T10:08:21.562Z,11.36
2023-04-04T10:11:02.490Z,11.66
2023-04-04T10:13:36.205Z,11.59
2023-04-04T10:16:04.795Z,11.28
2023-04-04T10:18:36.616Z,11.42
2023-04-04T10:21:15.100Z,11.17
2023-04-04T10:23:46.505Z,11.29
2023-04-04T10:26:14.117Z,11.16
2023-04-04T10:28:44.021Z,11.20
2023-04-04T10:31:17.479Z,11.00
2023-04-04T10:34:03.640Z,11.08
2023-04-04T10:36:45.976Z,11.16
2023-04-04T10:39:27.291Z,11.40
2023-04-04T10:41:56.387Z,11.25
2023-04-04T10:44:25.136Z,11.49
2023-04-04T10:46:54.369Z,11.32
2023-04-04T10:49:22.658Z,11.39
2023-04-04T10:51:56.286Z,11.62
2023-04-04T10:54:29.232Z,11.57
2023-04-04T10:57:01.550Z,11.56
2023-04-04T10:59:29.139Z,11.39
2023-04-04T11:01:59.256Z,11.45
2023-04-04T11:04:35.143Z,11.43
2023-04-04T11:07:18.077Z,11.48
2023-04-04T11:09:51.781Z,11.55
2023-04-04T11:12:38.436Z,11.27
2023-04-04T11:15:10.373Z,11.30
2023-04-04T11:17:54.229Z,11.54
2023-04-04T11:20:32.552Z,11.70
2023-04-04T11:23:05.388Z,11.81
2023-04-04T11:25:35.023Z,11.84
2023-04-04T11:28:08.192Z,11.92
2023-04-04T11:30:48.627Z,11.94
2023-04-04T11:33:30.262Z,11.89
2023-04-04T11:36:38.798Z,11.91
2023-04-04T11:39:21.147Z,11.94
2023-04-04T11:42:10.462Z,11.73
2023-04-04T11:44:41.984Z,11.54
2023-04-04T11:47:11.284Z,11.77
2023-04-04T11:49:42.733Z,11.90
2023-04-04T11:52:12.779Z,11.90
2023-04-04T11:54:42.462Z,11.94
2023-04-04T11:57:18.068Z,11.96
2023-04-04T11:59:47.957Z,11.96
2023-04-04T12:02:31.725Z,12.15
2023-04-04T12:05:00.378Z,12.07
2023-04-04T12:07:29.312Z,11.88
2023-04-04T12:09:57.870Z,12.06
2023-04-04T12:12:26.675Z,12.28
2023-04-04T12:15:00.253Z,12.12
2023-04-04T12:17:34.732Z,12.05
2023-04-04T12:20:07.660Z,12.19
2023-04-04T12:22:35.681Z,12.13
2023-04-04T12:25:06.042Z,11.98
2023-04-04T12:27:34.222Z,12.16
2023-04-04T12:30:04.149Z,12.27
2023-04-04T12:32:50.234Z,12.16
2023-04-04T12:35:18.827Z,12.35
2023-04-04T12:38:11.411Z,12.19
2023-04-04T12:40:39.304Z,12.24
2023-04-04T12:43:08.923Z,12.09
2023-04-04T12:45:38.186Z,11.59
2023-04-04T12:48:11.356Z,11.79
2023-04-04T12:50:53.340Z,11.55
2023-04-04T12:55:56.910Z,11.69
2023-04-04T12:58:26.066Z,11.89
2023-04-04T13:00:56.345Z,11.64
2023-04-04T13:03:25.448Z,12.08
2023-04-04T13:05:53.066Z,11.91
2023-04-04T13:08:20.896Z,11.99
2023-04-04T13:10:59.254Z,12.07
2023-04-04T13:13:40.736Z,11.99
2023-04-04T13:16:28.634Z,12.22
2023-04-04T13:18:56.357Z,12.20
2023-04-04T13:21:23.879Z,11.96
2023-04-04T13:23:51.338Z,11.81
2023-04-04T13:26:18.640Z,12.03
2023-04-04T13:28:46.234Z,11.84
2023-04-04T13:31:15.858Z,11.85
2023-04-04T13:33:43.411Z,12.22
2023-04-04T13:36:22.050Z,12.18
2023-04-04T13:38:49.599Z,12.24
2023-04-04T13:41:17.440Z,12.30
2023-04-04T13:43:44.920Z,12.35
2023-04-04T13:46:12.351Z,12.22
2023-04-04T13:48:39.728Z,12.25
2023-04-04T13:51:07.285Z,12.32
2023-04-04T13:53:34.883Z,12.33
2023-04-04T13:56:17.641Z,12.33
2023-04-04T13:58:50.914Z,12.40
2023-04-04T14:01:34.281Z,12.29
2023-04-04T14:04:07.317Z,12.30
2023-04-04T14:06:40.873Z,12.54
2023-04-04T14:09:08.364Z,12.61
2023-04-04T14:11:35.985Z,12.58
2023-04-04T14:14:03.543Z,12.46
2023-04-04T14:16:30.961Z,12.46
2023-04-04T14:18:58.447Z,12.55
2023-04-04T14:21:25.961Z,12.22
2023-04-04T14:23:53.633Z,12.13
2023-04-04T14:26:21.029Z,12.01
2023-04-04T14:28:48.645Z,12.17
2023-04-04T14:31:16.539Z,12.30
2023-04-04T14:33:44.128Z,12.39
2023-04-04T14:36:11.993Z,12.26
2023-04-04T14:38:39.372Z,12.30
2023-04-04T14:41:06.774Z,12.24
2023-04-04T14:43:35.393Z,12.15
2023-04-04T14:46:03.112Z,12.37
2023-04-04T14:48:30.664Z,12.32
2023-04-04T14:50:58.128Z,12.53
2023-04-04T14:53:26.065Z,12.59
2023-04-04T14:55:53.558Z,12.44
2023-04-04T14:58:21.026Z,12.43
2023-04-04T15:00:49.370Z,12.46
2023-04-04T15:03:17.339Z,12.58
2023-04-04T15:05:44.781Z,12.51
2023-04-04T15:08:12.217Z,12.54
2023-04-04T15:10:39.968Z,12.66
2023-04-04T15:13:07.587Z,12.70
2023-04-04T15:15:35.051Z,12.67
2023-04-04T15:18:02.710Z,12.53
2023-04-04T15:20:30.359Z,12.63
2023-04-04T15:22:57.869Z,12.71
2023-04-04T15:25:25.543Z,12.54
2023-04-04T15:27:53.097Z,12.55
2023-04-04T15:30:20.580Z,12.51
2023-04-04T15:32:48.021Z,12.56
2023-04-04T15:35:18.133Z,12.50
2023-04-04T15:37:46.151Z,12.52
2023-04-04T15:40:13.847Z,12.71
2023-04-04T15:42:41.849Z,12.68
2023-04-04T15:45:10.020Z,12.71
2023-04-04T15:47:37.501Z,12.70
2023-04-04T15:50:06.579Z,12.66
2023-04-04T15:52:34.155Z,12.60
2023-04-04T15:55:01.523Z,12.63
2023-04-04T15:57:28.950Z,12.50
2023-04-04T15:59:56.325Z,12.47
2023-04-04T16:02:23.929Z,12.39
2023-04-04T16:04:51.396Z,12.36
2023-04-04T16:07:19.188Z,12.49
2023-04-04T16:09:46.877Z,12.57
2023-04-04T16:12:14.280Z,12.48
2023-04-04T16:14:41.763Z,12.44
2023-04-04T16:17:09.757Z,12.39
2023-04-04T16:19:37.207Z,12.39
2023-04-04T16:22:05.568Z,12.31
2023-04-04T16:24:32.992Z,12.28
2023-04-04T16:27:01.109Z,12.39
2023-04-04T16:29:31.221Z,12.42
2023-04-04T16:31:58.674Z,12.32
2023-04-04T16:34:26.105Z,12.28
2023-04-04T16:36:53.682Z,12.21
2023-04-04T16:39:23.048Z,12.17
2023-04-04T16:41:50.457Z,12.19
2023-04-04T16:44:17.907Z,12.15
2023-04-04T16:46:47.198Z,12.10
2023-04-04T16:49:14.757Z,12.02
2023-04-04T16:51:42.077Z,11.96
2023-04-04T16:54:09.392Z,12.05
2023-04-04T16:56:36.716Z,12.03
2023-04-04T16:59:04.196Z,11.95
2023-04-04T17:01:31.934Z,11.95
2023-04-04T17:03:59.509Z,11.92
2023-04-04T17:06:27.537Z,11.84
2023-04-04T17:08:54.863Z,11.89
2023-04-04T17:11:22.271Z,11.85
2023-04-04T17:13:49.622Z,11.83
2023-04-04T17:16:20.282Z,11.81
2023-04-04T17:18:54.894Z,11.81
2023-04-04T17:21:22.758Z,11.66
2023-04-04T17:23:50.110Z,11.69
2023-04-04T17:26:21.260Z,11.68
2023-04-04T17:28:48.656Z,11.61
2023-04-04T17:31:28.368Z,11.59
2023-04-04T17:33:56.216Z,11.44
2023-04-04T17:36:23.886Z,11.47
2023-04-04T17:38:54.224Z,11.34
2023-04-04T17:41:21.611Z,11.28
2023-04-04T17:44:00.603Z,11.27
2023-04-04T17:46:31.545Z,11.29
2023-04-04T17:49:02.018Z,11.16
2023-04-04T17:51:35.979Z,11.20
2023-04-04T17:54:05.160Z,11.16
2023-04-04T17:56:32.537Z,11.12
2023-04-04T17:58:59.981Z,11.02
2023-04-04T18:01:30.190Z,10.85
2023-04-04T18:04:01.621Z,10.85
2023-04-04T18:06:29.876Z,10.85
2023-04-04T18:08:57.756Z,10.82
2023-04-04T18:11:27.322Z,10.59
2023-04-04T18:13:54.934Z,10.64
2023-04-04T18:16:22.470Z,10.59
2023-04-04T18:18:49.845Z,10.57
2023-04-04T18:21:17.331Z,10.52
2023-04-04T18:23:44.811Z,10.55
2023-04-04T18:26:12.111Z,10.47
2023-04-04T18:28:39.418Z,10.39
2023-04-04T18:31:08.287Z,10.39
2023-04-04T18:33:38.178Z,10.33
2023-04-04T18:36:05.657Z,10.23
2023-04-04T18:38:32.984Z,10.18
2023-04-04T18:41:00.581Z,10.17
2023-04-04T18:43:27.925Z,10.16
2023-04-04T18:45:55.220Z,10.08
2023-04-04T18:48:24.948Z,10.07
2023-04-04T18:50:52.342Z,10.07
2023-04-04T18:53:19.626Z,9.96
2023-04-04T18:55:49.164Z,9.98
2023-04-04T18:58:16.663Z,9.89
2023-04-04T19:00:44.401Z,9.81
2023-04-04T19:03:13.282Z,9.80
2023-04-04T19:05:46.523Z,9.87
2023-04-04T19:08:15.954Z,9.94
2023-04-04T19:10:51.000Z,9.98
2023-04-04T19:13:18.530Z,9.92
2023-04-04T19:15:46.929Z,9.97
2023-04-04T19:18:14.378Z,9.87
2023-04-04T19:20:43.581Z,9.99
2023-04-04T19:23:10.941Z,9.78
2023-04-04T19:25:38.305Z,9.59
2023-04-04T19:28:05.722Z,9.59
2023-04-04T19:30:43.807Z,9.73
2023-04-04T19:33:13.114Z,9.60
2023-04-04T19:36:02.339Z,9.62
2023-04-04T19:38:33.624Z,9.37
2023-04-04T19:41:03.054Z,9.52
2023-04-04T19:43:31.196Z,9.43
2023-04-04T19:46:05.118Z,9.44
2023-04-04T19:48:38.207Z,9.36
2023-04-04T19:51:12.337Z,9.43
2023-04-04T19:53:41.004Z,9.29
2023-04-04T19:56:10.670Z,9.34
2023-04-04T19:58:38.850Z,9.07
2023-04-04T20:01:08.398Z,9.07
2023-04-04T20:03:38.136Z,8.88
2023-04-04T20:06:28.766Z,8.98
2023-04-04T20:09:07.161Z,8.86
2023-04-04T20:11:36.463Z,8.97
2023-04-04T20:14:09.159Z,8.81
2023-04-04T20:16:37.090Z,8.77
2023-04-04T20:19:08.225Z,8.82
2023-04-04T20:21:36.300Z,8.77
2023-04-04T20:24:08.309Z,8.68
2023-04-04T20:26:36.512Z,8.76
2023-04-04T20:29:09.604Z,8.60
2023-04-04T20:31:48.497Z,8.69
2023-04-04T20:34:46.618Z,8.58
2023-04-04T20:37:19.839Z,8.64
2023-04-04T20:40:03.010Z,8.66
2023-04-04T20:42:34.153Z,8.66
2023-04-04T20:45:13.440Z,8.60
2023-04-04T20:47:44.053Z,8.57
2023-04-04T20:50:17.479Z,8.47
2023-04-04T20:52:53.195Z,8.49
2023-04-04T20:55:22.728Z,8.36
2023-04-04T20:57:54.544Z,8.24
2023-04-04T21:00:28.181Z,8.22
2023-04-04T21:02:57.268Z,8.31
2023-04-04T21:05:36.606Z,8.26
2023-04-04T21:08:29.601Z,8.24
2023-04-04T21:10:57.807Z,8.22
2023-04-04T21:13:32.225Z,8.27
2023-04-04T21:16:01.651Z,8.24
2023-04-04T21:18:32.764Z,8.13
2023-04-04T21:21:10.509Z,8.07
2023-04-04T21:23:50.063Z,8.20
2023-04-04T21:26:29.025Z,8.27
2023-04-04T21:28:58.489Z,8.41
2023-04-04T21:31:30.263Z,8.31
2023-04-04T21:34:01.673Z,8.27
2023-04-04T21:36:29.699Z,8.25
2023-04-04T21:39:17.438Z,8.31
2023-04-04T21:41:45.130Z,8.19
2023-04-04T21:44:12.721Z,8.13
2023-04-04T21:46:41.643Z,7.92
2023-04-04T21:49:10.547Z,7.93
2023-04-04T21:51:37.995Z,7.97
2023-04-04T21:54:05.628Z,7.95
2023-04-04T21:56:33.410Z,7.90
2023-04-04T21:59:03.005Z,8.03
2023-04-04T22:01:31.210Z,8.10
2023-04-04T22:03:59.256Z,8.01
2023-04-04T22:06:27.401Z,8.07
2023-04-04T22:08:56.686Z,8.07
2023-04-04T22:11:27.645Z,8.00
2023-04-04T22:14:07.054Z,8.19
2023-04-04T22:16:39.759Z,8.28
2023-04-04T22:19:11.449Z,8.18
2023-04-04T22:21:46.801Z,8.13
2023-04-04T22:24:17.685Z,8.10
2023-04-04T22:26:45.929Z,8.04
2023-04-04T22:29:13.396Z,8.05
2023-04-04T22:31:41.147Z,7.97
2023-04-04T22:34:09.081Z,8.04
2023-04-04T22:36:39.064Z,8.01
2023-04-04T22:39:06.754Z,8.04
2023-04-04T22:41:34.276Z,8.07
2023-04-04T22:44:01.564Z,7.93
2023-04-04T22:46:29.730Z,7.91
2023-04-04T22:49:05.606Z,7.99
2023-04-04T22:51:43.034Z,7.89
2023-04-04T22:54:13.320Z,8.04
2023-04-04T22:56:41.288Z,8.03
2023-04-04T22:59:08.752Z,8.03
2023-04-04T23:01:36.206Z,8.01
2023-04-04T23:04:03.864Z,7.95
2023-04-04T23:06:31.429Z,7.93
2023-04-04T23:08:59.928Z,7.87
2023-04-04T23:11:27.581Z,7.87
2023-04-04T23:13:57.046Z,7.74
2023-04-04T23:16:26.371Z,7.71
2023-04-04T23:18:54.212Z,7.61
2023-04-04T23:21:22.049Z,7.73
2023-04-04T23:23:49.668Z,7.62
2023-04-04T23:26:17.143Z,7.54
2023-04-04T23:28:44.513Z,7.45
2023-04-04T23:31:11.862Z,7.24
2023-04-04T23:33:39.314Z,7.14
2023-04-04T23:36:07.263Z,7.11
2023-04-04T23:38:35.427Z,7.05
2023-04-04T23:41:02.916Z,7.01
2023-04-04T23:43:30.339Z,6.84
2023-04-04T23:45:58.072Z,6.89
2023-04-04T23:48:25.473Z,6.81
2023-04-04T23:50:56.802Z,6.84
2023-04-04T23:53:24.624Z,6.68
2023-04-04T23:55:51.965Z,6.75
2023-04-04T23:58:19.380Z,6.68
